QTR15 OMDB-OTHH
Flight info
| Callsign | QTR15 |
|---|---|
| Flight time | 0h 46m |
| Altitude | 22000 |
| Route | NABIX P699 OXARI M430 TOSNA |
| Aircraft | A320/M-SDE3FGHIRWY/LB1 |
Departure
| Time | 2026-05-04 15:04 |
|---|---|
| Airport | Dubai International Airport (OMDB) |
Arrival
| Time | 2026-05-04 15:50 |
|---|---|
| Airport | Hamad International Airport (OTHH) |
| Time | Latitude | Longitude | Altitude | Speed | Heading |
|---|---|---|---|---|---|
| 2026-05-04 14:40 | 25.26673 | 55.35391 | 48 ft | 0 kts | 31° |
| 2026-05-04 14:41 | 25.26658 | 55.35381 | 48 ft | 2 kts | 31° |
| 2026-05-04 14:42 | 25.26635 | 55.35365 | 48 ft | 2 kts | 31° |
| 2026-05-04 14:42 | 25.26621 | 55.35356 | 48 ft | 2 kts | 31° |
| 2026-05-04 14:42 | 25.26609 | 55.35347 | 48 ft | 2 kts | 48° |
| 2026-05-04 14:43 | 25.26604 | 55.35334 | 48 ft | 2 kts | 97° |
| 2026-05-04 14:43 | 25.26610 | 55.35319 | 48 ft | 2 kts | 122° |
| 2026-05-04 14:43 | 25.26618 | 55.35304 | 48 ft | 2 kts | 121° |
| 2026-05-04 14:43 | 25.26627 | 55.35289 | 48 ft | 2 kts | 121° |
| 2026-05-04 14:44 | 25.26631 | 55.35282 | 48 ft | 0 kts | 121° |
| 2026-05-04 14:52 | 25.26625 | 55.35293 | 48 ft | 3 kts | 121° |
| 2026-05-04 14:52 | 25.26609 | 55.35321 | 48 ft | 6 kts | 121° |
| 2026-05-04 14:52 | 25.26584 | 55.35367 | 48 ft | 8 kts | 121° |
| 2026-05-04 14:52 | 25.26551 | 55.35426 | 48 ft | 6 kts | 121° |
| 2026-05-04 14:53 | 25.26531 | 55.35460 | 48 ft | 6 kts | 129° |
| 2026-05-04 14:53 | 25.26488 | 55.35481 | 48 ft | 8 kts | 180° |
| 2026-05-04 14:53 | 25.26429 | 55.35490 | 48 ft | 9 kts | 147° |
| 2026-05-04 14:53 | 25.26389 | 55.35548 | 48 ft | 11 kts | 130° |
| 2026-05-04 14:54 | 25.26339 | 55.35623 | 48 ft | 13 kts | 120° |
| 2026-05-04 14:54 | 25.26288 | 55.35718 | 48 ft | 16 kts | 120° |
| 2026-05-04 14:54 | 25.26227 | 55.35832 | 48 ft | 19 kts | 120° |
| 2026-05-04 14:54 | 25.26156 | 55.35962 | 48 ft | 21 kts | 122° |
| 2026-05-04 14:55 | 25.26074 | 55.36109 | 48 ft | 24 kts | 122° |
| 2026-05-04 14:55 | 25.25983 | 55.36271 | 48 ft | 23 kts | 122° |
| 2026-05-04 14:55 | 25.25929 | 55.36367 | 48 ft | 9 kts | 122° |
| 2026-05-04 14:55 | 25.25891 | 55.36435 | 48 ft | 12 kts | 122° |
| 2026-05-04 14:56 | 25.25844 | 55.36519 | 48 ft | 14 kts | 121° |
| 2026-05-04 14:56 | 25.25789 | 55.36621 | 48 ft | 17 kts | 121° |
| 2026-05-04 14:56 | 25.25725 | 55.36741 | 48 ft | 19 kts | 120° |
| 2026-05-04 14:56 | 25.25666 | 55.36853 | 48 ft | 12 kts | 120° |
| 2026-05-04 14:57 | 25.25621 | 55.36937 | 48 ft | 14 kts | 120° |
| 2026-05-04 14:57 | 25.25564 | 55.37036 | 48 ft | 17 kts | 124° |
| 2026-05-04 14:57 | 25.25503 | 55.37139 | 48 ft | 16 kts | 121° |
| 2026-05-04 14:57 | 25.25441 | 55.37253 | 48 ft | 19 kts | 121° |
| 2026-05-04 14:58 | 25.25369 | 55.37383 | 48 ft | 21 kts | 120° |
| 2026-05-04 14:58 | 25.25287 | 55.37531 | 48 ft | 24 kts | 122° |
| 2026-05-04 14:58 | 25.25196 | 55.37696 | 48 ft | 26 kts | 122° |
| 2026-05-04 14:58 | 25.25108 | 55.37854 | 48 ft | 22 kts | 121° |
| 2026-05-04 14:59 | 25.25024 | 55.38007 | 48 ft | 24 kts | 121° |
| 2026-05-04 14:59 | 25.24930 | 55.38126 | 48 ft | 14 kts | 177° |
| 2026-05-04 14:59 | 25.24902 | 55.38112 | 48 ft | 0 kts | 211° |
| 2026-05-04 15:00 | 25.24893 | 55.38106 | 48 ft | 3 kts | 211° |
| 2026-05-04 15:00 | 25.24870 | 55.38091 | 48 ft | 5 kts | 211° |
| 2026-05-04 15:01 | 25.24819 | 55.38048 | 48 ft | 4 kts | 247° |
| 2026-05-04 15:01 | 25.24821 | 55.38010 | 48 ft | 6 kts | 287° |
| 2026-05-04 15:01 | 25.24833 | 55.37983 | 48 ft | 0 kts | 299° |
| 2026-05-04 15:03 | 25.24838 | 55.37973 | 48 ft | 3 kts | 299° |
| 2026-05-04 15:03 | 25.24873 | 55.37906 | 48 ft | 28 kts | 300° |
| 2026-05-04 15:03 | 25.25118 | 55.37442 | 49 ft | 112 kts | 301° |
| 2026-05-04 15:04 | 25.25664 | 55.36485 | 50 ft | 179 kts | 303° |
| 2026-05-04 15:04 | 25.26396 | 55.35240 | 510 ft | 202 kts | 303° |
| 2026-05-04 15:04 | 25.27221 | 55.33882 | 1068 ft | 228 kts | 303° |
| 2026-05-04 15:04 | 25.28125 | 55.32322 | 1800 ft | 249 kts | 297° |
| 2026-05-04 15:05 | 25.28910 | 55.30636 | 2935 ft | 239 kts | 294° |
| 2026-05-04 15:05 | 25.29259 | 55.28892 | 3508 ft | 231 kts | 270° |
| 2026-05-04 15:05 | 25.28804 | 55.27222 | 3817 ft | 227 kts | 245° |
| 2026-05-04 15:05 | 25.28003 | 55.25728 | 4094 ft | 233 kts | 243° |
| 2026-05-04 15:06 | 25.27212 | 55.24157 | 4098 ft | 229 kts | 247° |
| 2026-05-04 15:06 | 25.26556 | 55.22562 | 4080 ft | 228 kts | 250° |
| 2026-05-04 15:06 | 25.25923 | 55.20942 | 4064 ft | 228 kts | 250° |
| 2026-05-04 15:07 | 25.24562 | 55.17763 | 4050 ft | 229 kts | 248° |
| 2026-05-04 15:07 | 25.23965 | 55.16147 | 4103 ft | 226 kts | 258° |
| 2026-05-04 15:07 | 25.23731 | 55.14376 | 4486 ft | 241 kts | 270° |
| 2026-05-04 15:07 | 25.23756 | 55.12469 | 4999 ft | 254 kts | 275° |
| 2026-05-04 15:08 | 25.23874 | 55.10519 | 5696 ft | 260 kts | 275° |
| 2026-05-04 15:08 | 25.23992 | 55.08511 | 6460 ft | 264 kts | 275° |
| 2026-05-04 15:08 | 25.24078 | 55.06450 | 7234 ft | 267 kts | 274° |
| 2026-05-04 15:08 | 25.24142 | 55.04422 | 7975 ft | 269 kts | 273° |
| 2026-05-04 15:09 | 25.24206 | 55.02347 | 8716 ft | 272 kts | 273° |
| 2026-05-04 15:09 | 25.24278 | 55.00248 | 9441 ft | 275 kts | 273° |
| 2026-05-04 15:09 | 25.24356 | 54.98117 | 10155 ft | 278 kts | 273° |
| 2026-05-04 15:10 | 25.24520 | 54.93688 | 11011 ft | 303 kts | 274° |
| 2026-05-04 15:10 | 25.24608 | 54.91304 | 11294 ft | 318 kts | 274° |
| 2026-05-04 15:10 | 25.24794 | 54.86194 | 11805 ft | 347 kts | 274° |
| 2026-05-04 15:11 | 25.24890 | 54.83495 | 12008 ft | 361 kts | 274° |
| 2026-05-04 15:11 | 25.24988 | 54.80675 | 12333 ft | 370 kts | 274° |
| 2026-05-04 15:11 | 25.25086 | 54.77831 | 12783 ft | 374 kts | 274° |
| 2026-05-04 15:11 | 25.25186 | 54.74939 | 13253 ft | 378 kts | 274° |
| 2026-05-04 15:12 | 25.25287 | 54.72010 | 13724 ft | 381 kts | 274° |
| 2026-05-04 15:12 | 25.25388 | 54.69079 | 14181 ft | 384 kts | 274° |
| 2026-05-04 15:12 | 25.25489 | 54.66108 | 14631 ft | 388 kts | 274° |
| 2026-05-04 15:12 | 25.25584 | 54.63135 | 15063 ft | 391 kts | 273° |
| 2026-05-04 15:13 | 25.25646 | 54.60142 | 15484 ft | 395 kts | 273° |
| 2026-05-04 15:13 | 25.25687 | 54.57043 | 15918 ft | 398 kts | 272° |
| 2026-05-04 15:13 | 25.25718 | 54.54018 | 16379 ft | 400 kts | 272° |
| 2026-05-04 15:13 | 25.25747 | 54.50914 | 16978 ft | 400 kts | 272° |
| 2026-05-04 15:14 | 25.25777 | 54.47873 | 17478 ft | 402 kts | 272° |
| 2026-05-04 15:14 | 25.25816 | 54.44767 | 17936 ft | 404 kts | 272° |
| 2026-05-04 15:14 | 25.25859 | 54.41670 | 18372 ft | 407 kts | 272° |
| 2026-05-04 15:14 | 25.25903 | 54.38517 | 18805 ft | 410 kts | 272° |
| 2026-05-04 15:15 | 25.25945 | 54.35297 | 19235 ft | 413 kts | 272° |
| 2026-05-04 15:15 | 25.25982 | 54.32157 | 19641 ft | 416 kts | 272° |
| 2026-05-04 15:15 | 25.26016 | 54.28949 | 20043 ft | 419 kts | 271° |
| 2026-05-04 15:16 | 25.26088 | 54.22466 | 20808 ft | 425 kts | 271° |
| 2026-05-04 15:16 | 25.26125 | 54.19187 | 21184 ft | 427 kts | 271° |
| 2026-05-04 15:16 | 25.26192 | 54.12566 | 21766 ft | 435 kts | 271° |
| 2026-05-04 15:17 | 25.26228 | 54.09228 | 21765 ft | 437 kts | 271° |
| 2026-05-04 15:17 | 25.26299 | 54.02492 | 21744 ft | 437 kts | 271° |
| 2026-05-04 15:17 | 25.26329 | 53.99137 | 21739 ft | 437 kts | 271° |
| 2026-05-04 15:18 | 25.26349 | 53.96905 | 21736 ft | 437 kts | 271° |
| 2026-05-04 15:19 | 25.26481 | 53.82387 | 21715 ft | 439 kts | 271° |
| 2026-05-04 15:19 | 25.26505 | 53.79014 | 21712 ft | 439 kts | 271° |
| 2026-05-04 15:19 | 25.26558 | 53.72287 | 21710 ft | 439 kts | 271° |
| 2026-05-04 15:20 | 25.26588 | 53.68894 | 21710 ft | 439 kts | 271° |
| 2026-05-04 15:20 | 25.26617 | 53.65497 | 21711 ft | 439 kts | 271° |
| 2026-05-04 15:20 | 25.26641 | 53.62160 | 21711 ft | 439 kts | 271° |
| 2026-05-04 15:20 | 25.26660 | 53.58785 | 21712 ft | 439 kts | 271° |
| 2026-05-04 15:21 | 25.26677 | 53.55375 | 21713 ft | 439 kts | 271° |
| 2026-05-04 15:21 | 25.26695 | 53.52040 | 21714 ft | 438 kts | 271° |
| 2026-05-04 15:21 | 25.26744 | 53.45317 | 21723 ft | 438 kts | 271° |
| 2026-05-04 15:22 | 25.26769 | 53.41910 | 21727 ft | 438 kts | 271° |
| 2026-05-04 15:22 | 25.26791 | 53.38566 | 21730 ft | 438 kts | 271° |
| 2026-05-04 15:22 | 25.26822 | 53.31803 | 21734 ft | 438 kts | 270° |
| 2026-05-04 15:23 | 25.26836 | 53.28456 | 21735 ft | 438 kts | 270° |
| 2026-05-04 15:23 | 25.26852 | 53.25071 | 21736 ft | 438 kts | 270° |
| 2026-05-04 15:23 | 25.26862 | 53.22834 | 21737 ft | 438 kts | 270° |
| 2026-05-04 15:23 | 25.26877 | 53.19459 | 21738 ft | 438 kts | 270° |
| 2026-05-04 15:24 | 25.26901 | 53.12774 | 21733 ft | 433 kts | 270° |
| 2026-05-04 15:24 | 25.26931 | 53.06091 | 21739 ft | 435 kts | 270° |
| 2026-05-04 15:25 | 25.26941 | 53.02708 | 21739 ft | 435 kts | 270° |
| 2026-05-04 15:25 | 25.26950 | 52.99407 | 21739 ft | 435 kts | 270° |
| 2026-05-04 15:25 | 25.26959 | 52.96016 | 21740 ft | 434 kts | 270° |
| 2026-05-04 15:26 | 25.26972 | 52.89343 | 21741 ft | 434 kts | 270° |
| 2026-05-04 15:26 | 25.26979 | 52.86011 | 21741 ft | 434 kts | 270° |
| 2026-05-04 15:26 | 25.26991 | 52.79313 | 21742 ft | 434 kts | 270° |
| 2026-05-04 15:27 | 25.26993 | 52.76034 | 21742 ft | 434 kts | 270° |
| 2026-05-04 15:27 | 25.27095 | 52.69329 | 21735 ft | 434 kts | 275° |
| 2026-05-04 15:28 | 25.28543 | 52.62847 | 21747 ft | 435 kts | 287° |
| 2026-05-04 15:28 | 25.29495 | 52.59692 | 21747 ft | 435 kts | 288° |
| 2026-05-04 15:28 | 25.31826 | 52.53519 | 21743 ft | 436 kts | 297° |
| 2026-05-04 15:29 | 25.33271 | 52.50561 | 21749 ft | 435 kts | 298° |
| 2026-05-04 15:30 | 25.39238 | 52.38863 | 21738 ft | 438 kts | 297° |
| 2026-05-04 15:30 | 25.43676 | 52.29939 | 21770 ft | 439 kts | 297° |
| 2026-05-04 15:31 | 25.46673 | 52.23958 | 21781 ft | 439 kts | 297° |
| 2026-05-04 15:31 | 25.48169 | 52.20978 | 21786 ft | 439 kts | 297° |
| 2026-05-04 15:32 | 25.52605 | 52.12085 | 21795 ft | 439 kts | 297° |
| 2026-05-04 15:32 | 25.55557 | 52.06154 | 21800 ft | 439 kts | 297° |
| 2026-05-04 15:33 | 25.58489 | 52.00238 | 21800 ft | 439 kts | 296° |
| 2026-05-04 15:34 | 25.58560 | 51.90603 | 21756 ft | 427 kts | 242° |
| 2026-05-04 15:34 | 25.56756 | 51.88034 | 21666 ft | 419 kts | 223° |
| 2026-05-04 15:34 | 25.52198 | 51.84363 | 21642 ft | 390 kts | 217° |
| 2026-05-04 15:35 | 25.48977 | 51.79689 | 20112 ft | 391 kts | 253° |
| 2026-05-04 15:35 | 25.48569 | 51.76691 | 19143 ft | 398 kts | 269° |
| 2026-05-04 15:35 | 25.48584 | 51.73650 | 18673 ft | 391 kts | 270° |
| 2026-05-04 15:36 | 25.48501 | 51.68078 | 17645 ft | 382 kts | 267° |
| 2026-05-04 15:36 | 25.48347 | 51.65142 | 16781 ft | 386 kts | 266° |
| 2026-05-04 15:36 | 25.48164 | 51.62221 | 16157 ft | 383 kts | 266° |
| 2026-05-04 15:37 | 25.47989 | 51.59302 | 15816 ft | 372 kts | 266° |
| 2026-05-04 15:37 | 25.47844 | 51.56511 | 15357 ft | 365 kts | 267° |
| 2026-05-04 15:37 | 25.47715 | 51.53679 | 14576 ft | 367 kts | 268° |
| 2026-05-04 15:37 | 25.47589 | 51.50849 | 13777 ft | 369 kts | 268° |
| 2026-05-04 15:38 | 25.47456 | 51.48018 | 13281 ft | 363 kts | 268° |
| 2026-05-04 15:38 | 25.47221 | 51.45274 | 12876 ft | 354 kts | 259° |
| 2026-05-04 15:38 | 25.46254 | 51.42749 | 12055 ft | 362 kts | 238° |
| 2026-05-04 15:38 | 25.44471 | 51.40792 | 11350 ft | 367 kts | 216° |
| 2026-05-04 15:39 | 25.42130 | 51.39746 | 10998 ft | 362 kts | 192° |
| 2026-05-04 15:39 | 25.39656 | 51.39799 | 10954 ft | 348 kts | 168° |
| 2026-05-04 15:39 | 25.35588 | 51.42187 | 10987 ft | 315 kts | 150° |
| 2026-05-04 15:40 | 25.33731 | 51.43297 | 10990 ft | 300 kts | 155° |
| 2026-05-04 15:40 | 25.31829 | 51.44206 | 10848 ft | 291 kts | 160° |
| 2026-05-04 15:40 | 25.29910 | 51.44973 | 10404 ft | 294 kts | 162° |
| 2026-05-04 15:40 | 25.27965 | 51.45737 | 9972 ft | 297 kts | 161° |
| 2026-05-04 15:41 | 25.26058 | 51.46553 | 9793 ft | 290 kts | 159° |
| 2026-05-04 15:41 | 25.24224 | 51.47399 | 9669 ft | 281 kts | 158° |
| 2026-05-04 15:41 | 25.22437 | 51.48222 | 9356 ft | 281 kts | 159° |
| 2026-05-04 15:41 | 25.20620 | 51.49027 | 9018 ft | 281 kts | 159° |
| 2026-05-04 15:42 | 25.18798 | 51.49813 | 8744 ft | 278 kts | 160° |
| 2026-05-04 15:42 | 25.17044 | 51.50565 | 8420 ft | 279 kts | 159° |
| 2026-05-04 15:42 | 25.15250 | 51.51354 | 8150 ft | 276 kts | 159° |
| 2026-05-04 15:42 | 25.13464 | 51.52157 | 7814 ft | 276 kts | 159° |
| 2026-05-04 15:43 | 25.11665 | 51.52959 | 7538 ft | 274 kts | 159° |
| 2026-05-04 15:43 | 25.09914 | 51.53727 | 7205 ft | 274 kts | 159° |
| 2026-05-04 15:43 | 25.08150 | 51.54499 | 6937 ft | 272 kts | 159° |
| 2026-05-04 15:43 | 25.06387 | 51.55278 | 6597 ft | 272 kts | 159° |
| 2026-05-04 15:44 | 25.04636 | 51.56053 | 6320 ft | 270 kts | 159° |
| 2026-05-04 15:44 | 25.02904 | 51.56819 | 5986 ft | 270 kts | 157° |
| 2026-05-04 15:44 | 25.01345 | 51.58002 | 5590 ft | 270 kts | 129° |
| 2026-05-04 15:44 | 25.00541 | 51.59801 | 5343 ft | 259 kts | 98° |
| 2026-05-04 15:45 | 25.00620 | 51.61706 | 4980 ft | 251 kts | 68° |
| 2026-05-04 15:45 | 25.01544 | 51.63271 | 4617 ft | 242 kts | 37° |
| 2026-05-04 15:45 | 25.02996 | 51.64117 | 4330 ft | 234 kts | 18° |
| 2026-05-04 15:45 | 25.04499 | 51.64768 | 4129 ft | 229 kts | 20° |
| 2026-05-04 15:46 | 25.05917 | 51.65460 | 4048 ft | 219 kts | 24° |
| 2026-05-04 15:46 | 25.07187 | 51.66371 | 3904 ft | 213 kts | 35° |
| 2026-05-04 15:46 | 25.08359 | 51.67346 | 3637 ft | 208 kts | 23° |
| 2026-05-04 15:46 | 25.09721 | 51.67578 | 3345 ft | 202 kts | 348° |
| 2026-05-04 15:47 | 25.11033 | 51.67017 | 3111 ft | 202 kts | 335° |
| 2026-05-04 15:47 | 25.12313 | 51.66379 | 2839 ft | 203 kts | 336° |
| 2026-05-04 15:47 | 25.13627 | 51.65776 | 2554 ft | 204 kts | 338° |
| 2026-05-04 15:47 | 25.14947 | 51.65198 | 2274 ft | 204 kts | 339° |
| 2026-05-04 15:48 | 25.16269 | 51.64625 | 1992 ft | 205 kts | 338° |
| 2026-05-04 15:48 | 25.17599 | 51.64039 | 1728 ft | 204 kts | 338° |
| 2026-05-04 15:48 | 25.20164 | 51.62912 | 1199 ft | 187 kts | 338° |
| 2026-05-04 15:49 | 25.21284 | 51.62417 | 945 ft | 161 kts | 339° |
| 2026-05-04 15:49 | 25.22273 | 51.61981 | 734 ft | 143 kts | 339° |
| 2026-05-04 15:49 | 25.23148 | 51.61604 | 551 ft | 132 kts | 339° |
| 2026-05-04 15:49 | 25.23984 | 51.61233 | 374 ft | 130 kts | 337° |
| 2026-05-04 15:50 | 25.24842 | 51.60855 | 210 ft | 133 kts | 340° |
| 2026-05-04 15:50 | 25.25709 | 51.60487 | 47 ft | 132 kts | 340° |
| 2026-05-04 15:50 | 25.26247 | 51.60260 | 28 ft | 111 kts | 335° |
| 2026-05-04 15:50 | 25.26831 | 51.59985 | 27 ft | 49 kts | 340° |
| 2026-05-04 15:51 | 25.27003 | 51.59949 | 27 ft | 34 kts | 0° |
| 2026-05-04 15:51 | 25.27142 | 51.60032 | 27 ft | 20 kts | 128° |
| 2026-05-04 15:51 | 25.27098 | 51.60065 | 27 ft | 1 kts | 165° |
| 2026-05-04 15:51 | 25.27096 | 51.60066 | 27 ft | 0 kts | 165° |
| 2026-05-04 15:53 | 25.27087 | 51.60069 | 27 ft | 3 kts | 162° |
| 2026-05-04 15:53 | 25.27060 | 51.60079 | 27 ft | 5 kts | 160° |
| 2026-05-04 15:53 | 25.27016 | 51.60099 | 27 ft | 8 kts | 158° |
| 2026-05-04 15:53 | 25.26954 | 51.60128 | 27 ft | 11 kts | 156° |
| 2026-05-04 15:54 | 25.26875 | 51.60166 | 27 ft | 14 kts | 157° |
| 2026-05-04 15:54 | 25.26778 | 51.60208 | 27 ft | 17 kts | 158° |
| 2026-05-04 15:54 | 25.26661 | 51.60260 | 27 ft | 19 kts | 158° |
| 2026-05-04 15:54 | 25.26565 | 51.60303 | 27 ft | 10 kts | 157° |
| 2026-05-04 15:55 | 25.26493 | 51.60336 | 27 ft | 13 kts | 158° |
| 2026-05-04 15:55 | 25.26401 | 51.60376 | 27 ft | 15 kts | 158° |
| 2026-05-04 15:55 | 25.26292 | 51.60424 | 27 ft | 18 kts | 158° |
| 2026-05-04 15:55 | 25.26188 | 51.60469 | 27 ft | 11 kts | 158° |
| 2026-05-04 15:56 | 25.26138 | 51.60491 | 27 ft | 6 kts | 158° |
| 2026-05-04 15:56 | 25.26091 | 51.60512 | 27 ft | 9 kts | 155° |
| 2026-05-04 15:56 | 25.26061 | 51.60569 | 27 ft | 10 kts | 95° |
| 2026-05-04 15:56 | 25.26077 | 51.60655 | 27 ft | 13 kts | 72° |
| 2026-05-04 15:57 | 25.26113 | 51.60757 | 27 ft | 16 kts | 64° |
| 2026-05-04 15:57 | 25.26158 | 51.60870 | 27 ft | 13 kts | 68° |
| 2026-05-04 15:57 | 25.26174 | 51.60937 | 27 ft | 4 kts | 114° |
| 2026-05-04 15:57 | 25.26144 | 51.60963 | 27 ft | 7 kts | 154° |
| 2026-05-04 15:58 | 25.26114 | 51.60976 | 27 ft | 1 kts | 161° |
| 2026-05-04 15:58 | 25.26098 | 51.60982 | 27 ft | 4 kts | 161° |
| 2026-05-04 15:58 | 25.26087 | 51.60986 | 27 ft | 0 kts | 160° |